createdAt,value
2023-05-05T00:02:04.072Z,3.73
2023-05-05T00:04:30.456Z,3.93
2023-05-05T00:06:57.106Z,4.20
2023-05-05T00:09:23.562Z,4.07
2023-05-05T00:11:49.930Z,3.63
2023-05-05T00:14:16.369Z,3.70
2023-05-05T00:16:43.035Z,4.00
2023-05-05T00:19:12.094Z,3.63
2023-05-05T00:21:38.457Z,3.93
2023-05-05T00:24:05.215Z,4.33
2023-05-05T00:26:33.775Z,4.07
2023-05-05T00:29:00.133Z,3.90
2023-05-05T00:31:26.844Z,3.80
2023-05-05T00:33:55.676Z,3.90
2023-05-05T00:36:22.085Z,3.73
2023-05-05T00:38:48.376Z,3.87
2023-05-05T00:41:14.696Z,3.90
2023-05-05T00:43:41.033Z,3.83
2023-05-05T00:46:21.902Z,4.20
2023-05-05T00:48:48.484Z,4.00
2023-05-05T00:51:16.600Z,3.60
2023-05-05T00:53:45.093Z,3.73
2023-05-05T00:56:16.670Z,3.90
2023-05-05T00:58:43.615Z,4.47
2023-05-05T01:01:12.022Z,3.83
2023-05-05T01:03:40.017Z,3.53
2023-05-05T01:06:27.893Z,3.87
2023-05-05T01:09:23.891Z,4.37
2023-05-05T01:12:13.013Z,3.93
2023-05-05T01:14:44.008Z,3.87
2023-05-05T01:17:17.175Z,3.67
2023-05-05T01:20:09.104Z,3.60
2023-05-05T01:22:45.218Z,4.07
2023-05-05T01:25:49.010Z,4.00
2023-05-05T01:28:31.075Z,3.97
2023-05-05T01:31:06.353Z,3.90
2023-05-05T01:33:40.740Z,4.57
2023-05-05T01:36:13.237Z,4.40
2023-05-05T01:38:42.940Z,3.93
2023-05-05T01:41:17.342Z,3.73
2023-05-05T01:43:50.180Z,4.53
2023-05-05T01:46:19.035Z,4.20
2023-05-05T01:48:48.033Z,4.53
2023-05-05T01:51:17.468Z,4.57
2023-05-05T01:53:44.101Z,5.17
2023-05-05T01:56:12.046Z,4.90
2023-05-05T01:58:41.624Z,5.10
2023-05-05T02:01:08.988Z,5.00
2023-05-05T02:03:37.542Z,5.17
2023-05-05T02:06:05.582Z,5.47
2023-05-05T02:08:34.545Z,5.23
2023-05-05T02:11:01.351Z,5.80
2023-05-05T02:13:32.326Z,5.77
2023-05-05T02:15:59.984Z,5.87
2023-05-05T02:18:28.377Z,5.13
2023-05-05T02:20:54.835Z,5.60
2023-05-05T02:23:21.314Z,6.10
2023-05-05T02:25:51.050Z,5.83
2023-05-05T02:28:21.466Z,5.70
2023-05-05T02:30:55.433Z,6.00
2023-05-05T02:33:23.489Z,6.23
2023-05-05T02:35:51.867Z,6.37
2023-05-05T02:38:19.530Z,6.07
2023-05-05T02:40:48.070Z,5.83
2023-05-05T02:43:19.410Z,5.70
2023-05-05T02:45:46.256Z,5.80
2023-05-05T02:48:13.072Z,5.87
2023-05-05T02:50:39.594Z,6.03
2023-05-05T02:53:06.141Z,6.10
2023-05-05T02:55:51.848Z,5.67
2023-05-05T02:58:44.343Z,5.90
2023-05-05T03:01:49.108Z,5.90
2023-05-05T03:04:27.912Z,5.90
2023-05-05T03:06:59.380Z,5.77
2023-05-05T03:09:27.607Z,6.23
2023-05-05T03:12:00.787Z,5.90
2023-05-05T03:14:30.631Z,6.10
2023-05-05T03:17:00.443Z,5.90
2023-05-05T03:19:28.447Z,6.20
2023-05-05T03:21:55.153Z,6.40
2023-05-05T03:24:21.603Z,5.77
2023-05-05T03:26:49.489Z,6.10
2023-05-05T03:29:16.316Z,5.47
2023-05-05T03:31:43.011Z,5.70
2023-05-05T03:34:09.404Z,5.57
2023-05-05T03:36:36.073Z,5.27
2023-05-05T03:39:02.457Z,5.30
2023-05-05T03:41:28.815Z,6.23
2023-05-05T03:43:55.152Z,5.87
2023-05-05T03:46:21.472Z,5.33
2023-05-05T03:48:48.544Z,5.50
2023-05-05T03:51:15.431Z,5.60
2023-05-05T03:53:41.871Z,5.93
2023-05-05T03:56:08.441Z,6.30
2023-05-05T03:58:34.780Z,6.23
2023-05-05T04:01:01.689Z,5.67
2023-05-05T04:03:28.121Z,5.93
2023-05-05T04:05:54.566Z,5.37
2023-05-05T04:08:20.911Z,5.60
2023-05-05T04:10:47.357Z,6.40
2023-05-05T04:13:13.810Z,5.37
2023-05-05T04:15:45.370Z,5.73
2023-05-05T04:18:12.089Z,5.70
2023-05-05T04:20:38.483Z,6.33
2023-05-05T04:23:04.861Z,6.30
2023-05-05T04:25:31.456Z,6.60
2023-05-05T04:27:57.744Z,6.50
2023-05-05T04:30:24.082Z,6.70
2023-05-05T04:32:50.414Z,6.10
2023-05-05T04:35:16.808Z,6.50
2023-05-05T04:37:43.135Z,6.17
2023-05-05T04:40:10.502Z,5.93
2023-05-05T04:42:37.529Z,5.83
2023-05-05T04:45:04.366Z,6.40
2023-05-05T04:47:30.726Z,6.20
2023-05-05T04:49:57.130Z,5.97
2023-05-05T04:52:23.409Z,6.37
2023-05-05T04:54:49.782Z,6.03
2023-05-05T04:57:16.080Z,5.83
2023-05-05T04:59:42.475Z,5.73
2023-05-05T05:02:08.817Z,5.57
2023-05-05T05:04:35.157Z,5.57
2023-05-05T05:07:01.590Z,5.70
2023-05-05T05:09:27.951Z,5.87
2023-05-05T05:11:54.331Z,6.17
2023-05-05T05:14:20.690Z,7.10
2023-05-05T05:16:51.017Z,7.60
2023-05-05T05:19:17.411Z,5.87
2023-05-05T05:21:43.712Z,6.60
2023-05-05T05:24:11.395Z,6.33
2023-05-05T05:26:38.353Z,6.53
2023-05-05T05:29:04.854Z,7.03
2023-05-05T05:31:31.266Z,7.30
2023-05-05T05:33:57.658Z,7.50
2023-05-05T05:36:24.048Z,6.67
2023-05-05T05:38:53.389Z,6.73
2023-05-05T05:41:19.714Z,7.33
2023-05-05T05:43:46.113Z,7.20
2023-05-05T05:46:12.582Z,7.37
2023-05-05T05:48:39.230Z,6.90
2023-05-05T05:51:05.723Z,6.63
2023-05-05T05:53:32.723Z,7.10
2023-05-05T05:55:59.110Z,7.40
2023-05-05T05:58:25.478Z,7.13
2023-05-05T06:00:51.874Z,6.83
2023-05-05T06:03:18.344Z,7.00
2023-05-05T06:05:46.024Z,7.07
2023-05-05T06:08:12.359Z,7.03
2023-05-05T06:10:39.741Z,6.90
2023-05-05T06:13:06.145Z,7.20
2023-05-05T06:15:32.451Z,7.03
2023-05-05T06:17:58.875Z,7.17
2023-05-05T06:20:25.198Z,7.07
2023-05-05T06:22:51.545Z,7.47
2023-05-05T06:25:17.850Z,6.63
2023-05-05T06:27:44.190Z,6.80
2023-05-05T06:30:11.426Z,6.77
2023-05-05T06:32:37.923Z,7.20
2023-05-05T06:35:04.677Z,6.67
2023-05-05T06:37:31.036Z,6.63
2023-05-05T06:39:57.386Z,6.20
2023-05-05T06:42:23.725Z,6.60
2023-05-05T06:44:50.211Z,6.90
2023-05-05T06:47:16.621Z,7.27
2023-05-05T06:49:42.984Z,7.50
2023-05-05T06:52:09.326Z,6.87
2023-05-05T06:54:35.754Z,8.10
2023-05-05T06:57:02.106Z,7.50
2023-05-05T06:59:28.464Z,7.60
2023-05-05T07:01:54.842Z,7.03
2023-05-05T07:04:21.521Z,7.20
2023-05-05T07:06:47.881Z,7.95
2023-05-05T07:09:16.383Z,7.32
2023-05-05T07:11:43.376Z,7.93
2023-05-05T07:14:09.706Z,7.45
2023-05-05T07:16:37.209Z,7.22
2023-05-05T07:19:06.075Z,7.38
2023-05-05T07:21:33.785Z,7.80
2023-05-05T07:24:00.997Z,6.95
2023-05-05T07:26:27.468Z,7.68
2023-05-05T07:28:55.894Z,8.07
2023-05-05T07:31:22.214Z,8.27
2023-05-05T07:33:49.410Z,9.25
2023-05-05T07:36:19.486Z,9.20
2023-05-05T07:38:45.813Z,9.65
2023-05-05T07:41:12.922Z,9.05
2023-05-05T07:43:44.256Z,8.35
2023-05-05T07:46:11.077Z,9.05
2023-05-05T07:48:37.504Z,9.63
2023-05-05T07:51:03.920Z,8.75
2023-05-05T07:53:30.763Z,9.68
2023-05-05T07:55:57.085Z,9.07
2023-05-05T07:58:23.440Z,10.63
2023-05-05T08:00:51.023Z,9.13
2023-05-05T08:03:19.865Z,10.43
2023-05-05T08:05:46.763Z,10.35
2023-05-05T08:08:13.081Z,10.48
2023-05-05T08:10:39.372Z,10.00
2023-05-05T08:13:05.887Z,9.57
2023-05-05T08:15:32.358Z,9.38
2023-05-05T08:17:58.675Z,9.32
2023-05-05T08:20:27.628Z,8.13
2023-05-05T08:22:54.079Z,8.57
2023-05-05T08:25:20.492Z,7.97
2023-05-05T08:27:46.830Z,7.82
2023-05-05T08:30:13.469Z,9.30
2023-05-05T08:32:40.006Z,6.53
2023-05-05T08:35:07.437Z,6.10
2023-05-05T08:37:34.207Z,7.82
2023-05-05T08:40:00.678Z,5.82
2023-05-05T08:42:37.112Z,5.60
2023-05-05T08:45:05.725Z,6.40
2023-05-05T08:47:32.696Z,6.53
2023-05-05T08:49:59.240Z,6.63
2023-05-05T08:52:31.662Z,6.60
2023-05-05T08:55:12.595Z,7.30
2023-05-05T08:57:54.441Z,6.60
2023-05-05T09:00:21.189Z,6.57
2023-05-05T09:02:48.366Z,6.20
2023-05-05T09:05:15.297Z,6.00
2023-05-05T09:07:43.558Z,5.60
2023-05-05T09:10:11.635Z,5.85
2023-05-05T09:12:41.973Z,4.55
2023-05-05T09:15:11.456Z,3.90
2023-05-05T09:17:38.855Z,3.47
2023-05-05T09:20:13.424Z,3.65
2023-05-05T09:22:41.556Z,3.50
2023-05-05T09:25:15.906Z,3.28
2023-05-05T09:27:49.614Z,3.65
2023-05-05T09:30:18.245Z,3.22
2023-05-05T09:32:44.813Z,3.33
2023-05-05T09:35:11.372Z,3.22
2023-05-05T09:37:38.523Z,2.90
2023-05-05T09:40:05.948Z,3.10
2023-05-05T09:42:32.264Z,2.72
2023-05-05T09:44:59.938Z,2.75
2023-05-05T09:47:37.353Z,2.45
2023-05-05T09:50:04.189Z,2.50
2023-05-05T09:52:30.975Z,2.35
2023-05-05T09:54:57.566Z,2.28
2023-05-05T09:57:33.101Z,2.40
2023-05-05T10:00:01.442Z,2.30
2023-05-05T10:02:37.231Z,1.77
2023-05-05T10:05:12.990Z,1.85
2023-05-05T10:07:41.521Z,1.75
2023-05-05T10:10:11.494Z,2.30
2023-05-05T10:12:38.913Z,1.58
2023-05-05T10:15:07.406Z,1.83
2023-05-05T10:17:57.909Z,1.30
2023-05-05T10:20:33.301Z,1.60
2023-05-05T10:23:02.403Z,1.40
2023-05-05T10:25:33.159Z,1.33
2023-05-05T10:28:02.349Z,1.50
2023-05-05T10:30:31.768Z,1.52
2023-05-05T10:33:30.032Z,1.30
2023-05-05T10:36:01.604Z,0.90
2023-05-05T10:38:30.630Z,1.10
2023-05-05T10:41:01.984Z,1.02
2023-05-05T10:43:30.593Z,1.00
2023-05-05T10:45:58.067Z,1.10
2023-05-05T10:49:04.635Z,1.00
2023-05-05T10:51:44.197Z,1.00
2023-05-05T10:54:20.583Z,1.00
2023-05-05T10:56:47.204Z,1.15
2023-05-05T10:59:38.692Z,0.80
2023-05-05T11:02:25.141Z,1.00
2023-05-05T11:05:17.950Z,1.10
2023-05-05T11:07:46.359Z,1.02
2023-05-05T11:10:14.940Z,0.95
2023-05-05T11:13:03.060Z,0.95
2023-05-05T11:15:29.672Z,1.00
2023-05-05T11:18:00.812Z,1.02
2023-05-05T11:20:39.560Z,1.05
2023-05-05T11:23:06.111Z,1.20
2023-05-05T11:25:36.294Z,1.38
2023-05-05T11:28:08.091Z,1.17
2023-05-05T11:30:35.945Z,0.90
2023-05-05T11:33:36.759Z,0.80
2023-05-05T11:36:06.798Z,0.98
2023-05-05T11:38:55.527Z,0.93
2023-05-05T11:41:39.687Z,0.80
2023-05-05T11:44:19.708Z,0.90
2023-05-05T11:46:52.322Z,1.00
2023-05-05T11:49:28.989Z,0.98
2023-05-05T11:52:03.791Z,0.88
2023-05-05T11:54:30.642Z,1.20
2023-05-05T11:56:59.010Z,1.10
2023-05-05T11:59:25.579Z,1.45
2023-05-05T12:01:52.376Z,1.15
2023-05-05T12:04:19.265Z,0.85
2023-05-05T12:06:46.317Z,0.98
2023-05-05T12:09:17.005Z,0.98
2023-05-05T12:11:57.229Z,1.00
2023-05-05T12:14:24.916Z,1.00
2023-05-05T12:16:58.470Z,1.20
2023-05-05T12:19:33.480Z,0.80
2023-05-05T12:22:01.613Z,0.90
2023-05-05T12:24:28.293Z,0.98
2023-05-05T12:26:54.591Z,0.80
2023-05-05T12:29:29.127Z,0.80
2023-05-05T12:31:55.724Z,1.10
2023-05-05T12:34:23.150Z,0.80
2023-05-05T12:36:49.939Z,0.70
2023-05-05T12:39:16.269Z,0.90
2023-05-05T12:41:42.884Z,1.30
2023-05-05T12:44:09.336Z,0.93
2023-05-05T12:46:48.800Z,0.85
2023-05-05T12:49:15.383Z,0.80
2023-05-05T12:51:55.691Z,0.80
2023-05-05T12:54:29.407Z,0.80
2023-05-05T12:56:57.176Z,0.85
2023-05-05T12:59:23.720Z,1.02
2023-05-05T13:01:54.604Z,0.90
2023-05-05T13:04:23.093Z,0.82
2023-05-05T13:07:07.675Z,0.90
2023-05-05T13:09:34.634Z,0.85
2023-05-05T13:12:04.593Z,1.10
2023-05-05T13:14:37.892Z,0.93
2023-05-05T13:17:04.641Z,1.00
2023-05-05T13:19:31.083Z,0.90
2023-05-05T13:21:58.502Z,1.00
2023-05-05T13:24:38.105Z,0.80
2023-05-05T13:27:09.331Z,0.77
2023-05-05T13:29:36.061Z,0.85
2023-05-05T13:32:02.446Z,0.70
2023-05-05T13:34:28.863Z,0.93
2023-05-05T13:36:55.684Z,0.93
2023-05-05T13:39:22.414Z,0.77
2023-05-05T13:41:48.826Z,0.70
2023-05-05T13:44:16.007Z,0.90
2023-05-05T13:46:42.901Z,0.90
2023-05-05T13:49:09.313Z,0.75
2023-05-05T13:51:35.992Z,1.10
2023-05-05T13:54:02.849Z,0.80
2023-05-05T13:56:29.232Z,1.00
2023-05-05T13:58:55.657Z,0.95
2023-05-05T14:01:22.111Z,0.80
2023-05-05T14:03:48.540Z,0.90
2023-05-05T14:06:14.947Z,0.75
2023-05-05T14:08:41.498Z,0.85
2023-05-05T14:11:07.788Z,0.82
2023-05-05T14:13:34.126Z,0.95
2023-05-05T14:16:00.525Z,0.75
2023-05-05T14:18:28.010Z,0.80
2023-05-05T14:20:54.483Z,0.90
2023-05-05T14:23:21.278Z,1.10
2023-05-05T14:25:47.642Z,0.93
2023-05-05T14:28:13.964Z,1.05
2023-05-05T14:30:40.376Z,1.73
2023-05-05T14:33:06.868Z,0.95
2023-05-05T14:35:33.258Z,1.20
2023-05-05T14:37:59.557Z,0.73
2023-05-05T14:40:25.972Z,0.98
2023-05-05T14:42:52.319Z,0.93
2023-05-05T14:45:18.620Z,1.25
2023-05-05T14:47:44.981Z,1.30
2023-05-05T14:50:11.374Z,1.02
2023-05-05T14:52:40.006Z,1.15
2023-05-05T14:55:07.453Z,1.25
2023-05-05T14:57:34.384Z,1.10
2023-05-05T15:00:00.883Z,1.20
2023-05-05T15:02:27.335Z,1.07
2023-05-05T15:04:53.713Z,1.10
2023-05-05T15:07:21.191Z,0.90
2023-05-05T15:09:47.527Z,1.00
2023-05-05T15:12:13.878Z,1.00
2023-05-05T15:14:40.790Z,1.13
2023-05-05T15:17:07.159Z,1.60
2023-05-05T15:19:33.486Z,1.50
2023-05-05T15:21:59.775Z,1.30
2023-05-05T15:24:26.219Z,1.30
2023-05-05T15:26:52.544Z,1.80
2023-05-05T15:29:18.875Z,1.70
2023-05-05T15:31:45.287Z,1.97
2023-05-05T15:34:11.720Z,1.93
2023-05-05T15:36:38.049Z,1.70
2023-05-05T15:39:04.541Z,1.60
2023-05-05T15:41:34.126Z,2.13
2023-05-05T15:44:02.469Z,1.40
2023-05-05T15:46:31.410Z,2.03
2023-05-05T15:48:57.890Z,2.37
2023-05-05T15:51:24.282Z,2.30
2023-05-05T15:53:52.251Z,2.17
2023-05-05T15:56:19.043Z,2.50
2023-05-05T15:58:46.406Z,2.00
2023-05-05T16:01:12.859Z,2.30
2023-05-05T16:03:39.244Z,1.92
2023-05-05T16:06:05.892Z,1.77
2023-05-05T16:08:32.231Z,2.10
2023-05-05T16:10:58.610Z,1.70
2023-05-05T16:13:24.965Z,1.60
2023-05-05T16:15:51.341Z,1.70
2023-05-05T16:18:17.654Z,1.60
2023-05-05T16:20:44.277Z,3.17
2023-05-05T16:23:10.686Z,2.92
2023-05-05T16:25:37.122Z,2.47
2023-05-05T16:28:03.712Z,2.20
2023-05-05T16:30:29.989Z,1.67
2023-05-05T16:32:56.322Z,1.95
2023-05-05T16:35:23.020Z,1.90
2023-05-05T16:37:49.345Z,1.73
2023-05-05T16:40:15.736Z,2.03
2023-05-05T16:42:44.339Z,2.33
2023-05-05T16:45:13.480Z,2.00
2023-05-05T16:47:39.800Z,2.00
2023-05-05T16:50:06.998Z,2.30
2023-05-05T16:52:33.504Z,2.30
2023-05-05T16:55:00.052Z,2.30
2023-05-05T16:57:26.855Z,2.30
2023-05-05T16:59:56.273Z,3.70
2023-05-05T17:02:22.779Z,3.00
2023-05-05T17:04:49.183Z,2.15
2023-05-05T17:07:15.573Z,1.40
2023-05-05T17:09:41.863Z,1.80
2023-05-05T17:12:08.167Z,1.97
2023-05-05T17:14:35.395Z,3.50
2023-05-05T17:17:01.714Z,3.30
2023-05-05T17:19:28.061Z,4.13
2023-05-05T17:21:55.069Z,2.20
2023-05-05T17:24:21.529Z,4.10
2023-05-05T17:26:48.096Z,2.73
2023-05-05T17:29:15.238Z,2.30
2023-05-05T17:31:44.376Z,1.83
2023-05-05T17:34:10.880Z,1.77
2023-05-05T17:36:37.243Z,4.60
2023-05-05T17:39:03.553Z,4.80
2023-05-05T17:41:29.885Z,3.53
2023-05-05T17:43:56.836Z,2.37
2023-05-05T17:46:23.213Z,3.03
2023-05-05T17:48:49.644Z,2.70
2023-05-05T17:51:16.011Z,2.40
2023-05-05T17:53:42.326Z,2.63
2023-05-05T17:56:09.248Z,2.05
2023-05-05T17:58:35.756Z,1.95
2023-05-05T18:01:02.150Z,3.15
2023-05-05T18:03:28.758Z,2.60
2023-05-05T18:05:55.207Z,1.90
2023-05-05T18:08:21.508Z,2.00
2023-05-05T18:10:48.129Z,1.50
2023-05-05T18:13:14.524Z,1.40
2023-05-05T18:15:41.135Z,1.40
2023-05-05T18:18:07.604Z,1.40
2023-05-05T18:20:34.116Z,1.30
2023-05-05T18:23:00.404Z,1.40
2023-05-05T18:25:26.712Z,1.47
2023-05-05T18:27:52.985Z,1.60
2023-05-05T18:30:19.397Z,1.90
2023-05-05T18:32:45.767Z,1.33
2023-05-05T18:35:12.618Z,1.60
2023-05-05T18:37:42.172Z,2.60
2023-05-05T18:40:09.929Z,5.77
2023-05-05T18:42:36.230Z,2.60
2023-05-05T18:45:02.582Z,2.40
2023-05-05T18:47:29.167Z,1.73
2023-05-05T18:49:55.862Z,1.50
2023-05-05T18:52:22.212Z,1.10
2023-05-05T18:54:48.534Z,1.20
2023-05-05T18:57:14.879Z,0.93
2023-05-05T18:59:41.208Z,1.23
2023-05-05T19:02:07.877Z,1.03
2023-05-05T19:04:37.224Z,1.17
2023-05-05T19:07:04.246Z,1.00
2023-05-05T19:09:30.547Z,1.30
2023-05-05T19:11:56.896Z,1.03
2023-05-05T19:14:23.259Z,1.30
2023-05-05T19:16:49.670Z,1.20
2023-05-05T19:19:16.164Z,1.10
2023-05-05T19:21:42.622Z,1.20
2023-05-05T19:24:09.629Z,1.20
2023-05-05T19:26:36.053Z,1.40
2023-05-05T19:29:02.418Z,1.30
2023-05-05T19:31:30.668Z,1.00
2023-05-05T19:34:02.019Z,1.30
2023-05-05T19:36:29.854Z,1.30
2023-05-05T19:38:56.174Z,1.13
2023-05-05T19:41:22.494Z,1.40
2023-05-05T19:43:49.860Z,1.17
2023-05-05T19:46:17.081Z,1.10
2023-05-05T19:48:44.000Z,1.40
2023-05-05T19:51:10.391Z,1.30
2023-05-05T19:53:36.750Z,1.23
2023-05-05T19:56:04.753Z,0.93
2023-05-05T19:58:31.360Z,1.30
2023-05-05T20:00:57.686Z,1.40
2023-05-05T20:03:24.284Z,1.30
2023-05-05T20:05:50.857Z,1.67
2023-05-05T20:08:19.577Z,1.80
2023-05-05T20:10:45.974Z,2.00
2023-05-05T20:13:12.347Z,1.80
2023-05-05T20:15:38.751Z,1.87
2023-05-05T20:18:05.339Z,2.00
2023-05-05T20:20:31.740Z,1.80
2023-05-05T20:22:58.117Z,1.90
2023-05-05T20:25:24.457Z,2.00
2023-05-05T20:27:50.999Z,1.80
2023-05-05T20:30:17.300Z,2.03
2023-05-05T20:32:43.665Z,1.93
2023-05-05T20:35:11.179Z,1.90
2023-05-05T20:37:37.491Z,1.77
2023-05-05T20:40:04.047Z,2.13
2023-05-05T20:42:30.545Z,2.00
2023-05-05T20:44:57.057Z,1.93
2023-05-05T20:47:24.013Z,1.80
2023-05-05T20:49:52.027Z,1.67
2023-05-05T20:52:18.377Z,1.90
2023-05-05T20:54:44.651Z,1.80
2023-05-05T20:57:11.432Z,1.70
2023-05-05T20:59:37.907Z,1.87
2023-05-05T21:02:04.471Z,1.50
2023-05-05T21:04:30.856Z,2.20
2023-05-05T21:06:57.268Z,2.03
2023-05-05T21:09:23.987Z,2.17
2023-05-05T21:11:50.384Z,2.27
2023-05-05T21:14:16.717Z,2.20
2023-05-05T21:16:43.153Z,1.80
2023-05-05T21:19:09.535Z,1.60
2023-05-05T21:21:36.124Z,1.80
2023-05-05T21:24:02.547Z,1.70
2023-05-05T21:26:29.328Z,1.63
2023-05-05T21:28:55.737Z,1.50
2023-05-05T21:31:22.747Z,1.60
2023-05-05T21:33:49.543Z,1.73
2023-05-05T21:36:17.496Z,1.77
2023-05-05T21:38:43.880Z,1.80
2023-05-05T21:41:10.356Z,1.67
2023-05-05T21:43:36.694Z,1.90
2023-05-05T21:46:05.076Z,1.73
2023-05-05T21:48:31.673Z,1.73
2023-05-05T21:50:58.070Z,1.70
2023-05-05T21:53:24.814Z,1.50
2023-05-05T21:55:51.533Z,1.80
2023-05-05T21:58:17.941Z,1.93
2023-05-05T22:00:44.918Z,2.00
2023-05-05T22:03:11.478Z,1.70
2023-05-05T22:05:38.254Z,1.63
2023-05-05T22:08:04.718Z,1.80
2023-05-05T22:10:31.104Z,1.63
2023-05-05T22:12:58.115Z,1.90
2023-05-05T22:15:27.684Z,1.83
2023-05-05T22:17:56.599Z,1.70
2023-05-05T22:20:23.040Z,1.73
2023-05-05T22:22:49.346Z,2.00
2023-05-05T22:25:15.716Z,2.00
2023-05-05T22:27:42.153Z,1.90
2023-05-05T22:30:11.375Z,2.00
2023-05-05T22:32:38.414Z,1.87
2023-05-05T22:35:05.835Z,2.17
2023-05-05T22:37:32.130Z,2.00
2023-05-05T22:39:58.611Z,1.90
2023-05-05T22:42:25.011Z,1.57
2023-05-05T22:44:51.431Z,2.00
2023-05-05T22:47:18.922Z,1.70
2023-05-05T22:49:45.642Z,1.60
2023-05-05T22:52:12.388Z,1.80
2023-05-05T22:54:38.704Z,1.57
2023-05-05T22:57:05.070Z,1.50
2023-05-05T22:59:31.437Z,1.77
2023-05-05T23:01:57.769Z,1.70
2023-05-05T23:04:24.140Z,2.00
2023-05-05T23:06:52.978Z,1.50
2023-05-05T23:09:19.319Z,1.70
2023-05-05T23:11:45.713Z,1.80
2023-05-05T23:14:12.001Z,1.90
2023-05-05T23:16:38.346Z,1.60
2023-05-05T23:19:04.676Z,1.70
2023-05-05T23:21:33.968Z,1.73
2023-05-05T23:24:02.620Z,1.90
2023-05-05T23:26:29.006Z,1.83
2023-05-05T23:28:55.361Z,1.73
2023-05-05T23:31:22.171Z,1.60
2023-05-05T23:33:48.634Z,1.63
2023-05-05T23:36:14.975Z,1.70
2023-05-05T23:38:41.352Z,1.70
2023-05-05T23:41:07.661Z,1.80
2023-05-05T23:43:34.000Z,1.43
2023-05-05T23:46:00.377Z,1.73
2023-05-05T23:48:26.830Z,1.90
2023-05-05T23:50:53.511Z,2.00
2023-05-05T23:53:20.157Z,1.60
2023-05-05T23:55:46.501Z,1.80
2023-05-05T23:58:12.872Z,1.80
